Time;durP1;ratioP1;P1;durP2;ratioP2;P2;SDS_P1;SDS_P2;PMS_P1;PMS_P2;Temp;Humidity;BMP_temperature;BMP_pressure;BME280_temperature;BME280_humidity;BME280_pressure;Samples;Min_cycle;Max_cycle;Signal;HPM_P1;HPM_P2
2021/04/16 00:00:43;;;;;;;7.29;4.27;;;;;;;10.13;71.40;98744.04;350079;114;1963996;-73
2021/04/16 00:01:49;;;;;;;6.08;3.54;;;;;;;10.15;71.28;98741.95;353155;112;1962009;-74
2021/04/16 00:02:56;;;;;;;9.32;4.39;;;;;;;10.14;71.30;98743.01;318366;114;1962049;-74
2021/04/16 00:04:02;;;;;;;7.28;4.47;;;;;;;10.13;71.38;98746.73;353328;112;1963038;-74
2021/04/16 00:05:09;;;;;;;7.31;4.16;;;;;;;10.17;71.26;98744.44;352390;113;1961946;-73
2021/04/16 00:06:15;;;;;;;7.19;4.13;;;;;;;10.17;71.18;98741.73;353966;112;1962070;-73
2021/04/16 00:07:21;;;;;;;7.69;4.57;;;;;;;10.17;71.30;98752.53;308570;112;2763770;-74
2021/04/16 00:08:30;;;;;;;6.32;4.09;;;;;;;10.20;71.07;98747.49;324717;112;1961958;-72
2021/04/16 00:09:36;;;;;;;7.78;4.30;;;;;;;10.22;70.96;98742.70;306765;112;2810962;-71
2021/04/16 00:10:45;;;;;;;8.97;4.32;;;;;;;10.22;70.93;98744.58;323749;112;1963023;-75
2021/04/16 00:11:53;;;;;;;7.36;4.10;;;;;;;10.22;71.04;98745.40;307962;115;2819047;-73
2021/04/16 00:12:59;;;;;;;7.46;3.74;;;;;;;10.24;70.89;98746.00;351883;112;1961980;-73
2021/04/16 00:14:05;;;;;;;8.98;4.92;;;;;;;10.25;70.76;98739.55;351694;113;1963370;-73
2021/04/16 00:15:17;;;;;;;7.31;3.96;;;;;;;10.24;70.73;98748.70;350459;112;1961976;-73
2021/04/16 00:16:26;;;;;;;8.28;4.83;;;;;;;10.24;70.76;98742.45;312451;112;2025024;-73
2021/04/16 00:17:32;;;;;;;8.54;4.43;;;;;;;10.21;70.88;98746.43;343047;112;2928943;-73
2021/04/16 00:18:38;;;;;;;7.08;4.06;;;;;;;10.19;70.95;98742.31;326297;115;1961978;-73
2021/04/16 00:19:43;;;;;;;8.18;4.98;;;;;;;10.13;71.10;98744.04;346142;110;1961990;-73
2021/04/16 00:20:49;;;;;;;7.08;4.52;;;;;;;10.13;71.06;98741.34;361841;110;1961932;-74
2021/04/16 00:21:54;;;;;;;6.98;4.35;;;;;;;10.16;70.86;98749.02;363286;110;1961943;-74
2021/04/16 00:23:00;;;;;;;7.33;4.33;;;;;;;10.15;70.93;98744.64;361927;110;1961991;-74
2021/04/16 00:24:07;;;;;;;7.15;4.32;;;;;;;10.13;70.98;98739.49;362929;110;1962017;-74
2021/04/16 00:25:17;;;;;;;8.61;4.53;;;;;;;10.11;71.06;98740.77;287024;116;2204956;-72
2021/04/16 00:26:24;;;;;;;6.69;4.23;;;;;;;10.07;71.16;98744.95;318811;110;2889936;-73
2021/04/16 00:27:29;;;;;;;7.64;5.13;;;;;;;10.09;71.24;98740.16;338931;115;1961945;-73
2021/04/16 00:28:34;;;;;;;6.52;4.61;;;;;;;10.11;71.16;98738.89;333268;116;1961960;-73
2021/04/16 00:29:40;;;;;;;7.47;4.92;;;;;;;10.12;71.12;98740.52;349875;112;1964971;-73
2021/04/16 00:30:58;;;;;;;7.72;4.46;;;;;;;10.15;71.15;98744.64;353393;112;1962004;-73
2021/04/16 00:32:05;;;;;;;9.04;5.43;;;;;;;10.18;70.96;98748.77;306294;114;2764037;-74
2021/04/16 00:33:11;;;;;;;9.80;5.57;;;;;;;10.19;70.98;98734.21;362119;110;1962033;-74
2021/04/16 00:34:20;;;;;;;8.81;4.57;;;;;;;10.10;71.37;98736.40;361721;110;1963999;-73
2021/04/16 00:35:25;;;;;;;8.98;4.74;;;;;;;10.14;70.98;98743.01;339923;112;1962080;-73
2021/04/16 00:36:32;;;;;;;9.07;5.32;;;;;;;10.10;71.16;98731.82;352148;112;1962013;-73
2021/04/16 00:37:37;;;;;;;7.19;4.29;;;;;;;10.20;70.54;98736.70;348145;114;1961938;-73
2021/04/16 00:38:44;;;;;;;8.19;4.68;;;;;;;10.19;70.71;98731.52;342178;116;1961903;-73
2021/04/16 00:39:49;;;;;;;9.26;4.86;;;;;;;10.16;70.78;98740.06;346469;114;1961865;-73
2021/04/16 00:40:59;;;;;;;7.09;4.54;;;;;;;10.16;70.75;98740.06;307116;113;2800996;-72
2021/04/16 00:42:05;;;;;;;8.02;4.48;;;;;;;10.15;70.76;98741.95;352509;112;1963901;-73
2021/04/16 00:43:15;;;;;;;7.74;4.32;;;;;;;10.15;70.77;98736.55;298817;112;2307978;-73
2021/04/16 00:44:21;;;;;;;9.86;4.94;;;;;;;10.11;70.88;98733.48;301887;112;2124961;-73
2021/04/16 00:45:28;;;;;;;6.74;4.27;;;;;;;10.09;71.05;98738.28;325927;112;1961973;-73
2021/04/16 00:46:47;;;;;;;7.58;4.72;;;;;;;10.09;71.02;98734.77;353043;112;1961979;-72
2021/04/16 00:47:57;;;;;;;8.07;4.19;;;;;;;10.09;71.02;98740.16;350741;114;1962064;-73
2021/04/16 00:49:05;;;;;;;6.62;4.07;;;;;;;10.09;70.90;98738.28;361168;109;1960974;-72
2021/04/16 00:50:15;;;;;;;7.33;4.46;;;;;;;10.07;70.95;98737.67;309812;110;2131915;-73
2021/04/16 00:51:42;;;;;;;9.63;4.73;;;;;;;10.00;71.01;98733.40;361636;110;1961983;-73
2021/04/16 00:52:49;;;;;;;8.47;4.75;;;;;;;10.01;71.02;98743.98;362793;111;1961843;-73
2021/04/16 00:53:56;;;;;;;6.97;4.28;;;;;;;9.99;70.98;98740.67;362063;110;1962993;-73
2021/04/16 00:55:05;;;;;;;9.15;4.61;;;;;;;9.93;71.20;98740.77;352670;110;2931013;-73
2021/04/16 00:56:11;;;;;;;7.54;4.29;;;;;;;9.91;71.34;98736.40;361240;110;1961912;-75
2021/04/16 00:57:17;;;;;;;7.37;4.46;;;;;;;9.87;71.52;98740.61;353344;110;2863054;-73
2021/04/16 00:58:27;;;;;;;8.08;4.48;;;;;;;9.93;71.21;98738.06;357845;109;1961934;-73
2021/04/16 00:59:35;;;;;;;7.36;4.51;;;;;;;9.90;71.39;98736.64;326079;111;2636951;-73
2021/04/16 01:00:43;;;;;;;6.56;4.16;;;;;;;9.90;71.42;98736.64;363448;110;1963014;-73
2021/04/16 01:01:48;;;;;;;6.21;4.01;;;;;;;9.95;71.11;98736.80;356130;110;1961910;-73
2021/04/16 01:02:54;;;;;;;7.68;4.39;;;;;;;9.98;71.13;98730.95;364564;109;1961982;-74
2021/04/16 01:04:00;;;;;;;8.47;4.17;;;;;;;10.02;71.00;98744.80;362849;109;1961988;-72
2021/04/16 01:05:08;;;;;;;9.32;4.93;;;;;;;10.01;71.10;98737.77;364056;109;1962045;-73
2021/04/16 01:06:14;;;;;;;7.89;3.66;;;;;;;10.02;71.01;98740.22;363688;109;1962014;-73
2021/04/16 01:07:21;;;;;;;6.93;4.01;;;;;;;10.01;71.11;98743.16;364161;109;1964002;-72
2021/04/16 01:08:27;;;;;;;7.73;4.00;;;;;;;10.02;71.07;98739.41;363557;109;1960599;-72
2021/04/16 01:09:33;;;;;;;7.04;4.22;;;;;;;10.05;70.98;98744.34;360040;110;1961958;-73
2021/04/16 01:10:39;;;;;;;6.54;3.64;;;;;;;10.04;70.95;98740.83;314056;110;2070932;-72
2021/04/16 01:11:45;;;;;;;5.94;3.44;;;;;;;10.01;71.09;98740.47;349038;110;1962982;-74
2021/04/16 01:12:52;;;;;;;5.68;3.32;;;;;;;10.01;71.17;98737.77;362628;110;1961997;-72
2021/04/16 01:13:58;;;;;;;5.69;3.27;;;;;;;10.03;71.03;98739.19;358153;110;1961921;-73
2021/04/16 01:15:16;;;;;;;4.96;3.21;;;;;;;10.04;70.82;98737.31;360055;110;1961950;-74
2021/04/16 01:16:22;;;;;;;6.54;3.19;;;;;;;10.05;70.58;98738.95;361196;110;1961951;-73
2021/04/16 01:17:26;;;;;;;5.14;3.02;;;;;;;10.01;70.60;98743.16;360456;110;1963841;-73
2021/04/16 01:18:38;;;;;;;5.43;2.98;;;;;;;10.00;70.55;98733.40;360659;110;1963940;-73
2021/04/16 01:19:53;;;;;;;7.42;3.28;;;;;;;9.96;70.66;98734.91;360739;110;1962001;-73
2021/04/16 01:21:03;;;;;;;5.90;3.04;;;;;;;9.98;70.47;98730.95;359930;110;1969975;-73
2021/04/16 01:22:27;;;;;;;4.99;2.43;;;;;;;9.95;70.58;98736.80;359739;110;1962991;-73
2021/04/16 01:23:39;;;;;;;5.31;2.94;;;;;;;9.94;70.65;98734.31;360169;110;1963984;-72
2021/04/16 01:24:45;;;;;;;4.52;2.47;;;;;;;9.95;70.62;98731.40;352378;112;1961982;-73
2021/04/16 01:25:51;;;;;;;4.68;2.79;;;;;;;9.95;70.52;98728.70;311167;112;2059982;-74
2021/04/16 01:26:58;;;;;;;5.95;2.56;;;;;;;9.93;70.65;98732.67;352472;112;1962949;-73
2021/04/16 01:28:04;;;;;;;5.35;2.73;;;;;;;9.95;70.61;98735.95;363563;109;1962965;-73
2021/04/16 01:29:10;;;;;;;5.12;2.80;;;;;;;9.99;70.35;98734.46;356932;109;1960837;-73
2021/04/16 01:30:21;;;;;;;4.53;2.74;;;;;;;10.00;70.39;98736.09;347547;114;1961065;-73
2021/04/16 01:31:29;;;;;;;5.12;2.86;;;;;;;9.96;70.53;98738.43;315584;113;1960866;-72
2021/04/16 01:32:35;;;;;;;5.83;2.85;;;;;;;9.99;70.44;98726.37;348890;114;1960670;-73
2021/04/16 01:33:44;;;;;;;5.12;2.57;;;;;;;10.01;70.28;98730.48;340169;116;1960986;-73
2021/04/16 01:34:50;;;;;;;5.81;2.37;;;;;;;9.99;70.36;98734.46;336413;119;1964031;-73
2021/04/16 01:35:55;;;;;;;4.96;2.54;;;;;;;10.00;70.18;98725.30;341638;117;1962019;-73
2021/04/16 01:37:14;;;;;;;5.86;3.29;;;;;;;10.00;70.18;98726.16;333737;120;1961081;-74
2021/04/16 01:38:20;;;;;;;3.94;2.44;;;;;;;10.02;69.77;98732.12;347370;115;1961950;-73
2021/04/16 01:39:29;;;;;;;5.35;2.21;;;;;;;10.03;69.63;98728.40;348611;115;1963064;-74
2021/04/16 01:40:37;;;;;;;5.47;2.67;;;;;;;10.00;69.77;98728.85;359380;111;1961978;-73
2021/04/16 01:41:53;;;;;;;4.97;3.02;;;;;;;9.95;69.77;98735.95;335765;111;2343945;-74
2021/04/16 01:42:58;;;;;;;5.72;2.84;;;;;;;9.83;70.17;98725.91;356654;111;1961965;-73
2021/04/16 01:44:07;;;;;;;5.49;2.56;;;;;;;9.76;70.25;98727.03;356581;111;1962026;-72
2021/04/16 01:45:19;;;;;;;4.94;2.88;;;;;;;9.65;70.21;98732.11;333285;113;1964934;-73
2021/04/16 01:46:28;;;;;;;4.83;2.69;;;;;;;9.53;71.21;98731.20;352661;113;1963029;-73
2021/04/16 01:47:34;;;;;;;4.48;2.57;;;;;;;9.52;71.27;98736.80;347076;113;1961979;-73
2021/04/16 01:48:46;;;;;;;5.28;2.36;;;;;;;9.51;71.17;98729.78;350423;113;1960694;-73
2021/04/16 01:49:54;;;;;;;4.22;2.31;;;;;;;9.52;71.26;98726.84;308085;113;2774015;-73
2021/04/16 01:50:59;;;;;;;4.01;2.09;;;;;;;9.58;71.09;98738.61;349988;113;1962949;-72
2021/04/16 01:52:07;;;;;;;4.87;2.29;;;;;;;9.62;70.90;98729.86;347140;114;1961874;-73
2021/04/16 01:53:13;;;;;;;4.70;2.40;;;;;;;9.60;70.91;98728.43;300699;115;2823993;-72
2021/04/16 01:54:22;;;;;;;4.78;2.62;;;;;;;9.59;70.97;98722.22;313662;114;1962040;-73
2021/04/16 01:55:28;;;;;;;4.93;2.55;;;;;;;9.61;71.00;98722.02;338857;114;2912996;-73
2021/04/16 01:56:36;;;;;;;4.51;2.03;;;;;;;9.62;70.91;98724.47;347354;114;1962947;-74
2021/04/16 01:57:45;;;;;;;4.21;2.45;;;;;;;9.55;71.20;98723.73;348083;114;1961954;-73
2021/04/16 01:58:51;;;;;;;4.18;2.23;;;;;;;9.58;71.16;98731.37;342893;116;1961938;-73
2021/04/16 01:59:56;;;;;;;4.37;2.43;;;;;;;9.64;70.79;98722.38;345312;115;1962008;-73
2021/04/16 02:01:05;;;;;;;4.53;2.36;;;;;;;9.62;70.74;98729.04;345619;115;1962014;-73
2021/04/16 02:02:14;;;;;;;3.56;2.09;;;;;;;9.64;70.69;98732.34;351293;113;1961981;-73
2021/04/16 02:03:19;;;;;;;4.56;2.32;;;;;;;9.66;70.62;98730.26;323710;113;1961987;-72
2021/04/16 02:04:25;;;;;;;4.73;2.68;;;;;;;9.69;70.43;98725.23;333660;113;1962048;-72
2021/04/16 02:05:31;;;;;;;3.92;2.17;;;;;;;9.70;70.49;98734.14;351441;113;1961966;-73
2021/04/16 02:06:39;;;;;;;4.51;2.01;;;;;;;9.77;70.25;98718.73;350201;113;1961957;-74
2021/04/16 02:07:45;;;;;;;4.65;2.46;;;;;;;9.76;70.35;98722.45;309999;113;2741898;-73
2021/04/16 02:08:52;;;;;;;4.49;2.22;;;;;;;9.82;69.98;98728.84;335679;115;1963922;-73
2021/04/16 02:09:58;;;;;;;4.16;2.31;;;;;;;9.84;69.93;98724.03;350073;113;1961946;-73
2021/04/16 02:11:04;;;;;;;4.15;2.02;;;;;;;9.77;70.07;98729.52;319654;113;2904023;-72
2021/04/16 02:12:13;;;;;;;4.93;2.48;;;;;;;9.73;70.23;98722.08;317942;113;1962978;-72
2021/04/16 02:13:19;;;;;;;4.48;2.27;;;;;;;9.65;70.47;98723.20;351827;113;1962004;-72
2021/04/16 02:14:27;;;;;;;4.85;2.58;;;;;;;9.61;70.36;98722.83;316044;113;2640944;-73
2021/04/16 02:15:34;;;;;;;4.17;2.40;;;;;;;9.57;70.49;98718.91;347599;114;1960838;-73
2021/04/16 02:16:43;;;;;;;5.36;2.57;;;;;;;9.58;70.55;98730.52;330618;116;1960822;-73
2021/04/16 02:17:49;;;;;;;5.28;2.46;;;;;;;9.58;70.45;98728.67;347327;114;1962893;-74
2021/04/16 02:18:55;;;;;;;5.49;2.43;;;;;;;9.54;70.76;98726.63;306684;114;2752987;-73
2021/04/16 02:20:04;;;;;;;5.82;2.78;;;;;;;9.52;70.90;98718.75;328540;116;1962038;-72
2021/04/16 02:21:10;;;;;;;3.81;2.08;;;;;;;9.52;70.92;98724.15;309766;116;2637050;-73
2021/04/16 02:22:19;;;;;;;4.41;2.58;;;;;;;9.54;71.02;98727.45;303097;116;2021012;-73
2021/04/16 02:23:25;;;;;;;5.06;2.62;;;;;;;9.55;70.99;98728.27;337472;117;1963963;-73
2021/04/16 02:24:30;;;;;;;4.95;2.36;;;;;;;9.54;70.92;98722.06;339226;118;1962006;-73
2021/04/16 02:25:36;;;;;;;4.54;2.18;;;;;;;9.59;70.78;98724.09;311067;113;2887013;-74
2021/04/16 02:26:42;;;;;;;4.92;2.45;;;;;;;9.55;70.96;98723.73;350588;113;1964924;-73
2021/04/16 02:27:48;;;;;;;8.57;3.14;;;;;;;9.63;70.63;98727.98;352638;113;1963899;-73
2021/04/16 02:28:53;;;;;;;4.98;2.73;;;;;;;9.62;70.68;98723.65;352446;113;1961979;-73
2021/04/16 02:29:59;;;;;;;4.34;2.36;;;;;;;9.66;70.69;98724.86;352422;113;1961896;-74
2021/04/16 02:31:04;;;;;;;4.07;2.24;;;;;;;9.68;70.60;98728.98;351253;115;1963000;-73
2021/04/16 02:32:11;;;;;;;4.23;2.44;;;;;;;9.73;70.48;98728.30;352938;115;1961899;-73
2021/04/16 02:33:17;;;;;;;5.11;2.57;;;;;;;9.77;70.25;98720.60;306959;113;2826990;-73
2021/04/16 02:34:26;;;;;;;4.70;2.62;;;;;;;9.75;70.15;98728.91;329289;114;1961914;-72
2021/04/16 02:35:31;;;;;;;5.50;2.49;;;;;;;9.79;69.99;98723.88;333668;116;2955958;-73
2021/04/16 02:36:38;;;;;;;6.55;2.53;;;;;;;9.74;69.99;98721.88;337195;117;1961990;-73
2021/04/16 02:37:43;;;;;;;4.71;2.92;;;;;;;9.78;69.82;98725.75;351253;113;1962024;-73
2021/04/16 02:38:49;;;;;;;4.71;2.66;;;;;;;9.73;69.91;98719.39;351614;113;1964016;-71
2021/04/16 02:39:54;;;;;;;5.63;2.76;;;;;;;9.63;70.04;98725.28;352619;113;1962984;-73
2021/04/16 02:41:00;;;;;;;5.38;2.72;;;;;;;9.50;70.51;98720.02;351633;113;1962035;-73
2021/04/16 02:42:07;;;;;;;5.09;2.93;;;;;;;9.42;70.64;98726.52;352005;115;1961970;-72
2021/04/16 02:43:12;;;;;;;5.97;2.66;;;;;;;9.34;71.25;98724.11;331340;113;1962059;-73
2021/04/16 02:44:19;;;;;;;5.98;2.41;;;;;;;9.30;71.46;98722.92;347391;114;1961942;-73
2021/04/16 02:45:26;;;;;;;4.51;2.39;;;;;;;9.30;71.46;98721.04;348723;115;1962054;-73
2021/04/16 02:46:33;;;;;;;4.32;2.59;;;;;;;9.32;71.50;98726.22;307168;114;2707956;-74
2021/04/16 02:47:39;;;;;;;5.13;2.76;;;;;;;9.37;71.36;98723.69;347408;114;1962012;-73
2021/04/16 02:48:45;;;;;;;4.51;2.33;;;;;;;9.36;71.46;98719.33;347602;114;1964148;-73
2021/04/16 02:49:50;;;;;;;4.08;2.22;;;;;;;9.40;71.43;98717.86;348618;114;1961964;-73
2021/04/16 02:50:57;;;;;;;4.38;2.82;;;;;;;9.40;71.41;98724.06;348402;116;1961988;-73
2021/04/16 02:52:04;;;;;;;4.81;2.84;;;;;;;9.44;71.32;98725.25;305078;116;2800955;-73
2021/04/16 02:53:09;;;;;;;4.82;2.44;;;;;;;9.46;71.34;98727.73;348179;116;1963043;-74
2021/04/16 02:54:15;;;;;;;4.59;2.63;;;;;;;9.46;71.30;98725.86;351947;112;1962007;-73
2021/04/16 02:55:21;;;;;;;4.98;2.24;;;;;;;9.48;71.34;98727.53;348053;114;1961963;-72
2021/04/16 02:56:28;;;;;;;4.16;2.58;;;;;;;9.52;71.16;98734.11;348878;114;1964044;-73
2021/04/16 02:57:33;;;;;;;5.33;2.72;;;;;;;9.49;71.17;98729.98;302107;114;2313077;-73
2021/04/16 02:58:38;;;;;;;4.79;2.13;;;;;;;9.44;71.58;98727.95;316799;113;1962362;-72
2021/04/16 02:59:44;;;;;;;5.55;2.99;;;;;;;9.51;71.35;98727.91;323803;113;1961917;-74
2021/04/16 03:00:49;;;;;;;6.65;2.84;;;;;;;9.56;71.23;98719.16;325276;114;1963028;-72
2021/04/16 03:01:55;;;;;;;4.52;2.46;;;;;;;9.58;71.01;98725.97;346884;114;1961979;-73
2021/04/16 03:03:00;;;;;;;4.77;2.50;;;;;;;9.56;71.00;98709.19;345416;115;1961958;-73
2021/04/16 03:04:06;;;;;;;4.96;2.70;;;;;;;9.71;70.81;98724.17;352102;113;1961878;-73
2021/04/16 03:05:12;;;;;;;5.44;2.71;;;;;;;9.74;70.55;98729.97;352527;113;1962941;-72
2021/04/16 03:06:20;;;;;;;4.16;2.55;;;;;;;9.77;70.56;98723.30;315411;114;2546981;-73
2021/04/16 03:07:25;;;;;;;6.19;3.13;;;;;;;9.81;70.29;98722.60;346846;114;1961896;-74
2021/04/16 03:08:30;;;;;;;6.36;2.81;;;;;;;9.84;70.13;98722.19;348167;115;1962012;-73
2021/04/16 03:09:36;;;;;;;5.91;3.13;;;;;;;9.81;70.27;98721.78;345938;114;1961988;-73
2021/04/16 03:10:51;;;;;;;4.02;2.44;;;;;;;9.83;70.20;98725.91;346164;114;1965005;-73
2021/04/16 03:11:56;;;;;;;6.95;3.51;;;;;;;9.82;70.04;98723.45;353064;112;1961980;-73
2021/04/16 03:13:02;;;;;;;5.54;2.83;;;;;;;9.82;70.02;98721.58;351047;113;1963833;-72
2021/04/16 03:14:08;;;;;;;4.99;2.53;;;;;;;9.88;69.80;98727.94;361480;110;1961977;-73
2021/04/16 03:15:13;;;;;;;6.04;2.67;;;;;;;9.87;69.54;98723.58;361169;110;1964090;-73
2021/04/16 03:16:20;;;;;;;5.49;2.98;;;;;;;9.85;69.48;98733.79;362607;110;1961984;-73
2021/04/16 03:17:25;;;;;;;5.05;3.17;;;;;;;9.74;69.75;98732.66;338305;110;1961968;-73
2021/04/16 03:18:31;;;;;;;6.74;3.17;;;;;;;9.65;70.07;98725.89;360459;110;1962995;-73
2021/04/16 03:19:36;;;;;;;5.22;2.76;;;;;;;9.59;69.98;98722.22;363791;110;1960855;-73
2021/04/16 03:20:43;;;;;;;6.18;2.93;;;;;;;9.51;70.28;98717.12;362579;110;1962002;-73
2021/04/16 03:21:49;;;;;;;5.03;3.00;;;;;;;9.45;70.30;98724.22;360223;110;1963922;-73
2021/04/16 03:22:55;;;;;;;4.66;2.66;;;;;;;9.38;70.33;98720.76;313446;110;2799962;-73
2021/04/16 03:24:00;;;;;;;4.79;2.61;;;;;;;9.25;71.41;98726.27;327903;110;1962040;-74
2021/04/16 03:25:09;;;;;;;6.16;3.02;;;;;;;9.27;71.07;98728.75;341177;111;1962977;-73
2021/04/16 03:26:16;;;;;;;5.23;2.48;;;;;;;9.23;71.26;98729.20;323240;110;1983004;-74
2021/04/16 03:27:22;;;;;;;3.95;2.34;;;;;;;9.26;71.15;98725.20;361819;111;1961956;-73
2021/04/16 03:28:28;;;;;;;4.42;2.63;;;;;;;9.29;70.97;98723.94;357174;112;1961795;-74
2021/04/16 03:29:33;;;;;;;4.87;2.66;;;;;;;9.25;71.12;98724.39;359355;109;1962896;-73
2021/04/16 03:30:40;;;;;;;3.68;2.34;;;;;;;9.31;70.97;98729.95;364916;108;1963003;-73
2021/04/16 03:31:46;;;;;;;5.61;2.64;;;;;;;9.30;70.95;98726.43;314526;110;2800977;-73
2021/04/16 03:32:52;;;;;;;5.69;2.84;;;;;;;9.37;70.66;98729.08;361170;110;1963033;-74
2021/04/16 03:33:59;;;;;;;6.55;3.59;;;;;;;9.36;70.57;98738.19;362337;110;1961953;-74
2021/04/16 03:35:06;;;;;;;5.22;3.02;;;;;;;9.35;70.58;98723.08;361655;111;1965024;-73
2021/04/16 03:36:23;;;;;;;6.18;3.04;;;;;;;9.39;70.29;98725.12;363096;109;1961984;-73
2021/04/16 03:37:28;;;;;;;4.52;2.84;;;;;;;9.40;70.31;98731.33;355211;113;1965013;-74
2021/04/16 03:38:34;;;;;;;4.13;2.17;;;;;;;9.40;70.12;98726.76;356388;111;1962030;-74
2021/04/16 03:39:39;;;;;;;4.57;2.92;;;;;;;9.37;70.22;98734.47;359777;111;1964079;-74
2021/04/16 03:40:47;;;;;;;6.74;3.46;;;;;;;9.39;70.18;98726.97;329202;111;2507976;-74
2021/04/16 03:41:52;;;;;;;6.54;3.55;;;;;;;9.40;70.14;98736.72;346130;111;1962036;-72
2021/04/16 03:42:58;;;;;;;5.43;2.88;;;;;;;9.43;70.14;98728.19;360138;111;1961960;-73
2021/04/16 03:44:04;;;;;;;4.77;2.56;;;;;;;9.42;70.18;98734.61;360278;106;1962371;-74
2021/04/16 03:45:10;;;;;;;5.32;3.09;;;;;;;9.38;70.33;98730.72;353132;112;1961027;-74
2021/04/16 03:46:16;;;;;;;4.86;3.03;;;;;;;9.45;70.01;98726.10;366476;108;1961873;-74
2021/04/16 03:47:22;;;;;;;4.58;2.66;;;;;;;9.49;69.92;98731.86;300443;108;2253039;-73
2021/04/16 03:48:29;;;;;;;4.64;2.99;;;;;;;9.49;69.82;98721.90;363517;108;1961972;-73
2021/04/16 03:49:34;;;;;;;4.22;2.48;;;;;;;9.54;69.69;98727.45;360609;110;1962010;-73
2021/04/16 03:50:41;;;;;;;5.51;3.32;;;;;;;9.57;69.35;98731.58;358834;110;1962965;-73
2021/04/16 03:51:59;;;;;;;5.04;2.99;;;;;;;9.51;69.44;98729.78;309113;110;2865909;-74
2021/04/16 03:53:06;;;;;;;6.27;2.91;;;;;;;9.43;69.52;98730.88;359786;110;1961922;-73
2021/04/16 03:54:12;;;;;;;7.98;3.01;;;;;;;9.31;70.07;98729.95;358591;110;1961948;-73
2021/04/16 03:55:20;;;;;;;5.36;2.99;;;;;;;9.21;70.22;98728.59;364219;108;1960836;-72
2021/04/16 03:56:27;;;;;;;5.59;3.10;;;;;;;9.12;71.03;98737.16;317292;110;2759947;-73
2021/04/16 03:57:46;;;;;;;6.04;2.90;;;;;;;9.06;70.94;98729.95;360008;109;1965026;-73
2021/04/16 03:58:52;;;;;;;4.50;2.66;;;;;;;9.08;70.92;98731.39;323062;111;2604006;-73
2021/04/16 03:59:57;;;;;;;4.44;2.28;;;;;;;9.13;70.97;98728.02;340849;113;1963087;-73
2021/04/16 04:01:05;;;;;;;6.24;2.36;;;;;;;9.17;70.75;98730.06;350510;113;1961943;-73
2021/04/16 04:02:12;;;;;;;4.22;2.26;;;;;;;9.21;70.82;98727.77;350550;113;1961962;-73
2021/04/16 04:03:17;;;;;;;4.66;2.16;;;;;;;9.19;70.98;98729.84;329614;115;1962022;-73
2021/04/16 04:04:23;;;;;;;6.53;2.47;;;;;;;9.29;70.60;98734.72;351667;111;1962273;-74
2021/04/16 04:05:28;;;;;;;4.19;2.38;;;;;;;9.35;70.51;98731.98;362617;109;1960867;-73
2021/04/16 04:06:35;;;;;;;5.23;2.44;;;;;;;9.43;70.25;98730.88;362362;109;1960943;-73
2021/04/16 04:07:40;;;;;;;3.73;2.05;;;;;;;9.46;70.03;98731.25;355323;111;1960885;-73
2021/04/16 04:08:46;;;;;;;6.64;2.58;;;;;;;9.53;69.82;98733.91;363315;109;1962126;-73
2021/04/16 04:09:52;;;;;;;9.31;3.06;;;;;;;9.55;69.70;98736.36;337782;109;2358033;-73
2021/04/16 04:10:57;;;;;;;5.48;2.48;;;;;;;9.57;69.65;98728.87;341587;110;1962002;-73
2021/04/16 04:12:04;;;;;;;6.92;2.65;;;;;;;9.59;69.51;98732.19;359559;110;1962995;-73
2021/04/16 04:13:13;;;;;;;4.84;2.61;;;;;;;9.56;69.42;98741.55;347303;115;1961970;-73
2021/04/16 04:14:28;;;;;;;5.37;3.56;;;;;;;9.51;69.29;98735.17;350619;114;1962032;-73
2021/04/16 04:15:34;;;;;;;7.59;3.47;;;;;;;9.43;69.51;98731.70;360564;110;1964943;-74
2021/04/16 04:17:00;;;;;;;4.69;2.67;;;;;;;9.35;69.69;98731.17;350985;113;1962066;-73
2021/04/16 04:18:07;;;;;;;4.58;2.69;;;;;;;9.24;70.31;98733.53;342124;110;2261947;-73
2021/04/16 04:19:12;;;;;;;7.16;3.46;;;;;;;9.18;69.98;98730.88;362033;110;1961961;-74
2021/04/16 04:20:21;;;;;;;5.15;3.01;;;;;;;9.08;70.55;98734.08;364148;110;1962034;-74
2021/04/16 04:21:27;;;;;;;5.03;2.59;;;;;;;9.03;70.68;98736.61;353779;112;1963005;-73
2021/04/16 04:22:34;;;;;;;5.35;3.07;;;;;;;8.99;70.84;98736.20;350188;113;1963005;-73
2021/04/16 04:23:39;;;;;;;4.48;2.30;;;;;;;8.97;71.01;98740.15;362349;110;1961986;-74
2021/04/16 04:24:46;;;;;;;5.63;2.90;;;;;;;9.00;70.90;98731.66;362733;110;1962004;-73
2021/04/16 04:25:51;;;;;;;4.93;2.49;;;;;;;9.05;70.86;98739.06;336698;111;2393985;-73
2021/04/16 04:26:57;;;;;;;6.17;2.97;;;;;;;9.11;70.75;98732.82;352006;110;1961942;-73
2021/04/16 04:28:05;;;;;;;6.12;3.41;;;;;;;9.15;70.72;98734.83;362082;109;1962030;-73
2021/04/16 04:29:11;;;;;;;6.60;2.51;;;;;;;9.21;70.70;98735.85;361773;110;1961930;-73
2021/04/16 04:30:21;;;;;;;4.84;2.61;;;;;;;9.29;70.33;98746.35;337699;110;1962952;-73
2021/04/16 04:31:27;;;;;;;4.51;2.56;;;;;;;9.35;70.19;98750.03;315005;110;2820951;-73
2021/04/16 04:32:32;;;;;;;6.27;3.07;;;;;;;9.39;70.05;98743.14;358666;110;1963862;-73
2021/04/16 04:33:38;;;;;;;6.27;3.03;;;;;;;9.42;70.15;98742.69;363064;109;1965003;-73
2021/04/16 04:34:43;;;;;;;6.21;2.88;;;;;;;9.46;69.55;98742.03;363240;110;1962942;-73
2021/04/16 04:35:49;;;;;;;5.26;2.94;;;;;;;9.52;69.43;98745.71;364072;110;1961926;-73
2021/04/16 04:36:58;;;;;;;6.59;3.25;;;;;;;9.60;69.25;98747.30;363606;110;1962044;-73
2021/04/16 04:38:05;;;;;;;7.21;2.86;;;;;;;9.60;68.95;98739.22;363209;110;1965037;-74
2021/04/16 04:39:12;;;;;;;7.01;2.98;;;;;;;9.57;68.94;98747.75;362428;109;1965004;-73
2021/04/16 04:40:21;;;;;;;6.74;3.28;;;;;;;9.52;69.09;98740.32;360127;110;1961945;-73
2021/04/16 04:41:27;;;;;;;6.31;3.62;;;;;;;9.48;69.15;98744.52;353663;109;1961011;-73
2021/04/16 04:42:43;;;;;;;7.32;4.51;;;;;;;9.38;69.55;98745.02;363923;111;1962001;-74
2021/04/16 04:43:48;;;;;;;8.54;4.13;;;;;;;9.37;69.19;98737.98;358158;112;1960783;-75
2021/04/16 04:44:55;;;;;;;11.23;4.22;;;;;;;8.73;69.17;98642.99;355560;112;1963941;-74
2021/04/16 04:46:11;;;;;;;11.68;4.79;;;;;;;9.34;68.95;98749.22;312774;112;2747937;-74
2021/04/16 04:47:17;;;;;;;8.90;4.37;;;;;;;9.30;69.27;98742.60;348149;115;1963955;-74
2021/04/16 04:48:22;;;;;;;11.16;4.09;;;;;;;9.23;69.70;98739.12;344610;115;1960709;-74
2021/04/16 04:49:29;;;;;;;12.07;4.81;;;;;;;9.16;69.72;98739.20;345997;114;1960927;-74
2021/04/16 04:50:35;;;;;;;9.08;4.19;;;;;;;9.14;70.04;98743.16;328815;114;2256778;-74
2021/04/16 04:51:40;;;;;;;7.24;3.34;;;;;;;9.16;70.05;98738.38;330459;114;1960823;-73
2021/04/16 04:52:46;;;;;;;8.17;4.24;;;;;;;9.14;70.08;98741.28;345643;115;1960837;-74
2021/04/16 04:53:52;;;;;;;5.77;3.32;;;;;;;9.10;70.53;98747.31;345067;113;1967661;-73
2021/04/16 04:55:03;;;;;;;8.64;3.40;;;;;;;9.13;70.31;98736.95;346742;109;1960731;-74
2021/04/16 04:56:09;;;;;;;5.73;3.07;;;;;;;9.20;70.25;98739.57;345558;115;1960892;-74
2021/04/16 04:57:16;;;;;;;6.43;3.02;;;;;;;9.30;70.02;98736.39;313679;115;2531850;-74
2021/04/16 04:58:22;;;;;;;5.83;2.99;;;;;;;9.35;70.01;98744.64;344886;115;1960740;-73
2021/04/16 04:59:27;;;;;;;11.09;3.87;;;;;;;9.42;69.78;98742.69;343800;115;1963903;-74
2021/04/16 05:00:34;;;;;;;9.18;3.31;;;;;;;9.50;69.70;98731.66;345483;115;1964021;-74
2021/04/16 05:01:40;;;;;;;6.89;3.21;;;;;;;9.58;69.13;98738.61;311035;114;2628993;-73
2021/04/16 05:02:46;;;;;;;5.42;3.11;;;;;;;9.59;68.71;98726.80;325055;117;1961941;-72
2021/04/16 05:03:51;;;;;;;8.26;3.38;;;;;;;9.60;68.82;98739.22;339538;117;1962014;-73
2021/04/16 05:04:57;;;;;;;7.46;3.99;;;;;;;9.57;68.82;98740.48;339612;114;1962001;-73
2021/04/16 05:06:03;;;;;;;6.83;3.86;;;;;;;9.54;68.90;98740.11;339923;117;1962079;-74
2021/04/16 05:07:09;;;;;;;9.99;4.10;;;;;;;9.50;68.89;98744.28;327866;114;2256951;-74
2021/04/16 05:08:14;;;;;;;7.62;3.83;;;;;;;9.46;69.00;98741.22;331395;117;1962969;-73
2021/04/16 05:09:20;;;;;;;6.46;4.08;;;;;;;9.41;69.31;98741.88;339862;117;1962030;-73
2021/04/16 05:10:27;;;;;;;12.26;4.54;;;;;;;9.37;69.26;98737.98;339731;117;1961964;-73
2021/04/16 05:11:33;;;;;;;7.84;4.46;;;;;;;9.36;69.31;98740.89;296696;117;2812907;-73
2021/04/16 05:12:39;;;;;;;9.36;4.30;;;;;;;9.29;69.76;98740.97;316051;118;1961909;-73